METAR Data
IDs: Format: Raw Decoded Include TAF

Data at: 0028 UTC 25 Apr 2019

METAR for:KDVN (Davenport Muni, IA, US)
Text:KDVN 242352Z AUTO 14005KT 10SM CLR 16/05 A2986 RMK AO2 SLP110 60000 T01560050 10161 20122 56014 $
Temperature: 15.6°C ( 60°F)
Dewpoint: 5.0°C ( 41°F) [RH = 49%]
Pressure (altimeter):29.86 inches Hg (1011.3 mb) [Sea level pressure: 1011.0 mb]
Winds:from the SE (140 degrees) at 6 MPH (5 knots; 2.6 m/s)
Visibility:10 or more sm (16+ km)
Ceiling:at least 12,000 feet AGL
Clouds:sky clear below 12,000 feet AGL
QC Flag:automated observation with no human augmentation; SOME DATA ABOVE MAY BE INACCURATE!!!"$" is an indication the sensor requires maintenance.